Time;durP1;ratioP1;P1;durP2;ratioP2;P2;SDS_P1;SDS_P2;PMS_P1;PMS_P2;Temp;Humidity;BMP_temperature;BMP_pressure;BME280_temperature;BME280_humidity;BME280_pressure;Samples;Min_cycle;Max_cycle;Signal;HPM_P1;HPM_P2
2022/06/18 00:02:28;;;;;;;11.70;4.80;;;;;;;15.31;53.16;99565.86;104856;1290;109111;-70
2022/06/18 00:04:59;;;;;;;12.50;4.50;;;;;;;15.28;53.29;99562.17;104949;1288;99367;-69
2022/06/18 00:07:28;;;;;;;10.90;4.30;;;;;;;15.25;53.27;99563.55;104893;1288;99526;-70
2022/06/18 00:10:04;;;;;;;10.20;4.40;;;;;;;15.23;53.52;99562.77;104918;1288;112742;-68
2022/06/18 00:15:30;;;;;;;10.90;4.40;;;;;;;15.18;53.58;99559.60;104915;1288;110374;-69
2022/06/18 00:18:02;;;;;;;19.10;4.60;;;;;;;15.14;53.75;99562.10;104851;1288;99351;-68
2022/06/18 00:20:36;;;;;;;13.00;4.50;;;;;;;15.12;53.82;99559.94;104795;1290;96741;-68
2022/06/18 00:23:11;;;;;;;11.90;4.20;;;;;;;15.10;53.81;99560.23;104847;1288;113469;-71
2022/06/18 00:25:46;;;;;;;12.10;4.40;;;;;;;15.10;53.77;99559.36;105083;1288;99297;-70
2022/06/18 00:28:25;;;;;;;11.40;4.50;;;;;;;15.10;53.98;99562.38;104968;1288;107434;-72
2022/06/18 00:30:56;;;;;;;11.80;4.30;;;;;;;15.10;54.00;99559.78;104866;1288;96582;-69
2022/06/18 00:33:24;;;;;;;13.10;4.20;;;;;;;15.07;53.99;99558.92;104751;1288;99240;-70
2022/06/18 00:35:59;;;;;;;13.90;4.80;;;;;;;15.05;54.09;99558.73;104770;1288;112857;-69
2022/06/18 00:38:34;;;;;;;9.60;4.60;;;;;;;15.01;54.17;99557.41;104851;1288;99341;-71
2022/06/18 00:41:07;;;;;;;13.20;4.80;;;;;;;14.99;54.30;99560.32;104877;1288;108832;-71
2022/06/18 00:43:42;;;;;;;;;;;;;;;14.97;54.22;99556.38;104926;1288;97328;-70
2022/06/18 00:46:43;;;;;;;16.80;6.90;;;;;;;14.92;54.41;99557.83;104813;1291;97358;-70
2022/06/18 00:49:23;;;;;;;19.50;7.80;;;;;;;14.83;54.39;99556.61;104732;1288;112806;-69
2022/06/18 00:52:17;;;;;;;21.60;8.50;;;;;;;14.76;54.51;99555.92;104739;1288;99324;-69
2022/06/18 00:55:04;;;;;;;18.90;6.00;;;;;;;14.68;54.64;99552.64;104531;1290;107739;-69
2022/06/18 00:57:46;;;;;;;15.80;5.70;;;;;;;14.58;54.56;99557.57;104724;1288;96591;-70
2022/06/18 01:00:24;;;;;;;14.30;5.70;;;;;;;14.51;54.66;99563.79;104776;1288;99451;-69
2022/06/18 01:02:52;;;;;;;17.50;6.30;;;;;;;14.43;54.64;99564.44;104744;1288;111749;-69
2022/06/18 01:05:27;;;;;;;16.10;6.10;;;;;;;14.34;54.71;99561.83;104758;1288;99308;-69
2022/06/18 01:08:03;;;;;;;15.90;5.80;;;;;;;14.24;54.91;99561.88;104761;1290;108562;-66
2022/06/18 01:10:41;;;;;;;14.50;5.10;;;;;;;14.15;54.89;99561.88;104812;1290;99352;-69
2022/06/18 01:13:17;;;;;;;11.40;4.90;;;;;;;14.03;54.90;99562.66;104741;1291;99250;-69
2022/06/18 01:15:48;;;;;;;16.30;5.70;;;;;;;13.94;55.08;99560.81;104621;1290;112787;-69
2022/06/18 01:18:16;;;;;;;13.90;5.10;;;;;;;13.89;55.13;99562.67;104818;1290;99466;-68
2022/06/18 01:20:50;;;;;;;15.10;5.30;;;;;;;13.79;54.80;99561.98;104743;1290;107711;-69
2022/06/18 01:23:58;;;;;;;17.20;5.50;;;;;;;13.62;55.01;99560.05;104795;1288;99320;-70
2022/06/18 01:26:30;;;;;;;15.30;5.30;;;;;;;13.50;55.31;99562.98;104825;1288;99250;-70
2022/06/18 01:28:58;;;;;;;11.70;5.20;;;;;;;13.43;55.35;99565.79;104750;1290;113346;-67
2022/06/18 01:31:30;;;;;;;13.80;5.80;;;;;;;13.36;55.36;99564.50;104809;1290;99341;-69
2022/06/18 01:34:01;;;;;;;14.30;5.50;;;;;;;13.32;55.55;99563.81;104786;1290;108428;-67
2022/06/18 01:36:36;;;;;;;14.40;5.90;;;;;;;13.28;55.76;99565.90;104769;1290;99945;-70
2022/06/18 01:39:12;;;;;;;12.80;5.60;;;;;;;13.21;55.76;99560.34;104815;1291;99271;-69
2022/06/18 01:41:51;;;;;;;10.80;5.10;;;;;;;13.15;55.79;99559.88;104851;1290;113143;-70
2022/06/18 01:44:40;;;;;;;14.50;5.50;;;;;;;13.10;55.99;99556.16;104845;1289;99373;-69
2022/06/18 01:47:38;;;;;;;16.20;6.40;;;;;;;13.04;56.03;99558.56;104688;1290;107849;-70
2022/06/18 01:50:22;;;;;;;15.70;6.10;;;;;;;12.93;56.02;99553.73;104491;1290;101292;-70
2022/06/18 01:53:06;;;;;;;13.60;6.30;;;;;;;12.80;56.05;99556.27;104705;1288;99420;-69
2022/06/18 01:55:46;;;;;;;17.00;7.20;;;;;;;12.71;56.26;99553.52;104915;1288;112778;-71
2022/06/18 01:58:29;;;;;;;17.80;7.60;;;;;;;12.62;56.29;99557.37;104738;1288;99442;-69
2022/06/18 02:01:01;;;;;;;18.50;7.00;;;;;;;12.55;56.41;99558.08;104823;1288;106769;-69
2022/06/18 02:03:33;;;;;;;16.50;7.00;;;;;;;12.47;56.33;99553.85;104754;1288;99356;-70
2022/06/18 02:06:01;;;;;;;19.10;7.70;;;;;;;12.41;56.24;99557.67;104766;1288;99987;-69
2022/06/18 02:08:31;;;;;;;20.70;7.70;;;;;;;12.27;56.01;99558.86;104741;1288;113326;-67
2022/06/18 02:11:06;;;;;;;14.70;6.60;;;;;;;12.05;56.24;99558.79;104782;1290;99231;-70
2022/06/18 02:13:39;;;;;;;21.30;7.20;;;;;;;11.90;56.66;99555.92;104481;1290;107797;-70
2022/06/18 02:16:21;;;;;;;16.40;6.90;;;;;;;11.83;57.07;99556.73;104694;1291;99364;-70
2022/06/18 02:18:49;;;;;;;17.80;7.10;;;;;;;11.82;57.35;99559.16;104844;1288;99330;-71
2022/06/18 02:21:24;;;;;;;16.60;6.60;;;;;;;11.83;57.50;99557.62;104834;1288;111732;-70
2022/06/18 02:23:56;;;;;;;18.80;7.00;;;;;;;11.86;57.57;99556.38;104947;1288;97452;-69
2022/06/18 02:26:28;;;;;;;19.00;6.20;;;;;;;11.88;57.58;99553.00;104898;1290;106199;-70
2022/06/18 02:28:59;;;;;;;14.70;5.60;;;;;;;11.88;57.31;99554.79;104954;1290;99354;-68
2022/06/18 02:31:34;;;;;;;17.80;6.60;;;;;;;11.78;57.23;99553.02;104920;1290;99278;-70
2022/06/18 02:34:15;;;;;;;16.10;6.70;;;;;;;11.65;57.30;99550.86;104892;1290;112860;-67
2022/06/18 02:36:47;;;;;;;14.80;6.60;;;;;;;11.53;57.41;99548.16;104943;1288;99370;-69
2022/06/18 02:39:39;;;;;;;15.40;6.50;;;;;;;11.45;57.69;99550.96;104767;1291;106758;-69
2022/06/18 02:42:17;;;;;;;20.50;7.60;;;;;;;11.42;58.02;99552.95;104759;1290;99280;-69
2022/06/18 02:44:48;;;;;;;16.90;6.70;;;;;;;11.39;57.74;99557.48;104814;1288;99242;-69
2022/06/18 02:47:18;;;;;;;17.40;6.30;;;;;;;11.36;57.72;99557.65;104760;1288;112866;-69
2022/06/18 02:50:01;;;;;;;16.50;6.30;;;;;;;11.33;58.02;99558.23;104817;1287;97774;-67
2022/06/18 02:52:49;;;;;;;16.70;6.70;;;;;;;11.26;57.94;99556.75;104781;1288;108527;-69
2022/06/18 02:55:27;;;;;;;16.80;6.50;;;;;;;11.24;58.46;99557.77;104765;1288;99260;-67
2022/06/18 02:58:28;;;;;;;14.90;5.60;;;;;;;11.26;58.70;99553.91;104547;1290;99305;-69
2022/06/18 03:01:04;;;;;;;13.90;5.90;;;;;;;11.30;58.94;99552.04;104759;1290;113265;-70
2022/06/18 03:03:39;;;;;;;15.60;5.80;;;;;;;11.36;59.11;99557.46;104863;1288;99486;-69
2022/06/18 03:06:11;;;;;;;21.30;5.80;;;;;;;11.42;59.20;99560.09;104765;1289;107749;-70
2022/06/18 03:08:46;;;;;;;13.50;6.30;;;;;;;11.48;59.27;99555.42;104829;1288;96702;-69
2022/06/18 03:14:14;;;;;;;12.40;5.40;;;;;;;11.60;59.57;99555.14;104823;1288;115616;-69
2022/06/18 03:16:45;;;;;;;14.80;5.50;;;;;;;11.64;59.48;99554.89;104644;1290;99304;-69
2022/06/18 03:19:35;;;;;;;12.30;5.60;;;;;;;11.67;59.54;99551.80;104762;1288;107807;-69
2022/06/18 03:22:19;;;;;;;14.70;5.80;;;;;;;11.72;59.75;99551.31;104854;1288;99669;-69
2022/06/18 03:24:47;;;;;;;12.80;5.80;;;;;;;11.78;59.78;99554.23;104869;1289;99265;-70
2022/06/18 03:27:19;;;;;;;10.90;5.20;;;;;;;11.84;59.79;99557.00;104813;1290;111763;-68
2022/06/18 03:29:49;;;;;;;12.00;5.60;;;;;;;11.90;59.70;99554.27;104848;1288;99273;-68
2022/06/18 03:32:28;;;;;;;16.90;6.20;;;;;;;11.99;59.67;99551.38;102816;1309;636341;-69
2022/06/18 03:34:59;;;;;;;13.80;5.40;;;;;;;12.01;59.66;99552.84;105359;1284;93830;-69
2022/06/18 03:37:27;;;;;;;17.40;6.20;;;;;;;12.04;59.59;99553.02;105485;1283;94386;-70
2022/06/18 03:39:55;;;;;;;16.40;6.30;;;;;;;12.03;59.91;99556.77;105418;1283;107282;-68
2022/06/18 03:42:25;;;;;;;16.30;6.50;;;;;;;12.07;60.18;99556.52;105345;1284;95048;-69
2022/06/18 03:44:53;;;;;;;13.80;6.10;;;;;;;12.12;60.25;99556.86;105307;1284;109191;-70
2022/06/18 03:47:24;;;;;;;10.20;5.00;;;;;;;12.18;60.27;99562.67;105535;1283;295426;-68
2022/06/18 03:49:52;;;;;;;15.80;5.70;;;;;;;12.23;60.14;99561.80;105714;1283;94402;-68
2022/06/18 03:52:25;;;;;;;15.20;5.70;;;;;;;12.28;60.50;99560.55;106091;1274;107365;-71
2022/06/18 03:54:53;;;;;;;12.00;5.70;;;;;;;12.34;60.58;99564.17;106090;1273;94227;-69
2022/06/18 03:57:23;;;;;;;15.30;5.80;;;;;;;12.41;60.59;99560.00;106334;1271;111141;-69
2022/06/18 03:59:51;;;;;;;12.70;5.40;;;;;;;12.48;60.74;99557.52;106300;1271;95283;-69
2022/06/18 04:02:19;;;;;;;15.60;5.40;;;;;;;12.56;60.72;99556.23;106196;1271;94275;-67
2022/06/18 04:04:50;;;;;;;10.70;5.40;;;;;;;12.63;60.83;99553.21;106252;1271;108950;-69
2022/06/18 04:07:24;;;;;;;13.70;5.70;;;;;;;12.71;61.01;99553.39;106220;1271;96202;-68
2022/06/18 04:09:54;;;;;;;12.30;5.30;;;;;;;12.78;60.99;99555.89;106095;1273;107723;-69
2022/06/18 04:12:24;;;;;;;15.40;6.40;;;;;;;12.85;61.11;99555.73;106056;1273;95266;-69
2022/06/18 04:14:52;;;;;;;13.60;5.60;;;;;;;12.92;61.15;99551.61;106151;1271;95362;-69
2022/06/18 04:17:24;;;;;;;14.70;5.70;;;;;;;12.99;61.30;99548.48;106080;1271;110541;-69
2022/06/18 04:19:51;;;;;;;12.60;5.30;;;;;;;13.08;61.37;99546.48;106150;1271;95214;-68
2022/06/18 04:22:22;;;;;;;17.60;6.10;;;;;;;13.16;61.40;99546.82;106064;1273;108316;-68
2022/06/18 04:24:53;;;;;;;12.50;5.60;;;;;;;13.24;61.42;99552.77;106074;1273;95187;-67
2022/06/18 04:27:21;;;;;;;13.80;5.30;;;;;;;13.32;61.40;99557.52;106123;1273;95177;-68
2022/06/18 04:29:51;;;;;;;14.00;5.50;;;;;;;13.40;61.51;99555.35;106101;1273;108910;-69
2022/06/18 04:32:22;;;;;;;13.30;5.50;;;;;;;13.49;61.49;99557.91;106130;1273;96226;-68
2022/06/18 04:34:49;;;;;;;9.40;5.20;;;;;;;13.59;61.50;99554.28;106116;1273;107701;-69
2022/06/18 04:37:17;;;;;;;15.40;5.50;;;;;;;13.68;61.62;99557.84;106107;1273;95250;-69
2022/06/18 04:39:49;;;;;;;14.80;4.90;;;;;;;13.77;61.69;99564.83;106135;1273;94351;-69
2022/06/18 04:42:16;;;;;;;13.60;5.90;;;;;;;13.87;61.69;99567.06;106068;1273;108835;-69
2022/06/18 04:44:48;;;;;;;17.50;5.20;;;;;;;13.97;61.78;99567.91;106153;1273;95270;-69
2022/06/18 04:47:16;;;;;;;11.90;5.40;;;;;;;14.10;61.85;99570.30;106139;1273;107526;-69
2022/06/18 04:49:48;;;;;;;18.30;5.80;;;;;;;14.21;61.85;99571.18;106217;1273;94612;-69
2022/06/18 04:52:18;;;;;;;14.00;5.40;;;;;;;14.31;61.90;99572.55;106190;1273;94258;-69
2022/06/18 04:54:46;;;;;;;13.90;5.40;;;;;;;14.40;61.89;99573.77;106148;1273;109647;-69
2022/06/18 04:57:17;;;;;;;8.60;4.60;;;;;;;14.50;61.85;99573.02;106254;1273;95300;-69
2022/06/18 04:59:48;;;;;;;14.30;5.60;;;;;;;14.59;61.91;99576.03;106241;1273;107812;-68
2022/06/18 05:02:26;;;;;;;17.00;6.10;;;;;;;14.66;61.86;99570.05;106225;1273;94985;-70
2022/06/18 05:04:55;;;;;;;12.90;4.90;;;;;;;14.75;61.90;99570.30;106207;1273;95187;-68
2022/06/18 05:07:25;;;;;;;15.50;5.70;;;;;;;14.84;62.05;99568.70;106145;1273;109315;-68
2022/06/18 05:09:55;;;;;;;18.90;5.20;;;;;;;14.92;61.99;99569.42;106165;1273;95280;-68
2022/06/18 05:12:23;;;;;;;13.60;5.40;;;;;;;15.00;61.93;99571.10;106146;1273;108119;-68
2022/06/18 05:14:53;;;;;;;14.30;5.40;;;;;;;15.09;61.93;99568.94;106155;1273;95269;-68
2022/06/18 05:17:30;;;;;;;15.70;5.60;;;;;;;15.22;62.20;99565.37;106156;1273;95139;-66
2022/06/18 05:19:58;;;;;;;13.10;5.50;;;;;;;15.33;62.14;99570.65;106159;1273;108671;-68
2022/06/18 05:22:28;;;;;;;11.70;5.00;;;;;;;15.43;62.21;99567.31;106261;1273;95074;-70
2022/06/18 05:24:59;;;;;;;14.80;5.70;;;;;;;15.54;62.15;99569.65;106250;1273;107756;-70
2022/06/18 05:27:36;;;;;;;14.40;5.40;;;;;;;15.63;62.22;99572.11;106214;1273;95040;-69
2022/06/18 05:30:12;;;;;;;13.10;5.40;;;;;;;15.71;62.18;99565.98;106223;1273;95256;-70
2022/06/18 05:32:44;;;;;;;12.80;5.30;;;;;;;15.83;62.07;99566.24;106233;1271;108668;-68
2022/06/18 05:35:16;;;;;;;12.10;4.90;;;;;;;15.95;61.96;99565.27;106216;1273;95272;-70
2022/06/18 05:37:50;;;;;;;10.10;4.40;;;;;;;16.08;62.04;99565.20;106214;1273;108338;-69
2022/06/18 05:40:19;;;;;;;10.60;4.60;;;;;;;16.22;62.15;99567.02;106093;1273;94369;-69
2022/06/18 05:42:53;;;;;;;12.90;4.70;;;;;;;16.45;62.17;99564.84;106188;1273;94263;-69
2022/06/18 05:45:24;;;;;;;12.40;5.00;;;;;;;16.73;62.12;99568.10;106219;1273;107607;-68
2022/06/18 05:47:54;;;;;;;14.70;5.30;;;;;;;17.02;62.22;99571.23;106199;1273;94267;-70
2022/06/18 05:50:25;;;;;;;11.40;4.50;;;;;;;17.29;62.00;99571.75;106260;1273;108352;-67
2022/06/18 05:52:55;;;;;;;16.20;4.80;;;;;;;17.47;61.94;99570.15;106138;1273;95291;-68
2022/06/18 05:55:28;;;;;;;9.20;4.10;;;;;;;17.59;61.94;99573.11;106152;1273;94543;-68
2022/06/18 05:57:58;;;;;;;10.20;4.60;;;;;;;17.69;62.03;99573.65;106225;1273;109315;-68
2022/06/18 06:00:32;;;;;;;13.50;4.20;;;;;;;17.78;62.04;99570.67;106193;1273;94222;-68
2022/06/18 06:03:02;;;;;;;17.20;7.90;;;;;;;17.85;61.76;99565.81;106095;1273;107649;-67
2022/06/18 06:05:30;;;;;;;12.10;4.80;;;;;;;17.95;62.04;99567.73;106097;1273;95272;-68
2022/06/18 06:08:05;;;;;;;11.70;4.60;;;;;;;18.05;61.96;99568.61;106111;1273;95146;-68
2022/06/18 06:13:29;;;;;;;12.50;4.60;;;;;;;18.26;62.01;99568.20;105988;1274;94393;-67
2022/06/18 06:15:56;;;;;;;12.30;4.60;;;;;;;18.38;61.74;99570.33;106130;1273;107475;-67
2022/06/18 06:18:33;;;;;;;12.30;4.10;;;;;;;18.49;61.63;99567.42;106111;1273;95156;-69
2022/06/18 06:21:02;;;;;;;10.60;3.80;;;;;;;18.60;61.70;99568.34;106231;1273;95177;-69
2022/06/18 06:23:33;;;;;;;9.30;4.00;;;;;;;18.71;61.62;99568.00;106253;1273;108589;-69
2022/06/18 06:26:05;;;;;;;8.70;3.40;;;;;;;18.83;61.85;99565.90;106243;1273;95190;-68
2022/06/18 06:28:32;;;;;;;11.50;3.70;;;;;;;18.99;61.74;99565.46;106210;1273;107770;-70
2022/06/18 06:31:02;;;;;;;11.40;4.60;;;;;;;19.13;61.51;99563.73;106252;1271;94353;-67
2022/06/18 06:33:33;;;;;;;8.90;4.20;;;;;;;19.27;61.53;99568.05;106279;1271;95986;-69
2022/06/18 06:36:08;;;;;;;9.40;3.50;;;;;;;19.43;61.58;99566.79;106214;1271;109008;-68
2022/06/18 06:38:37;;;;;;;7.30;3.50;;;;;;;19.61;61.39;99568.54;106197;1271;94232;-68
2022/06/18 06:41:19;;;;;;;11.60;3.80;;;;;;;19.80;61.35;99566.64;106099;1273;108372;-68
2022/06/18 06:43:51;;;;;;;13.60;3.60;;;;;;;20.00;61.17;99562.28;106094;1273;95224;-69
2022/06/18 06:46:22;;;;;;;11.30;3.20;;;;;;;20.20;61.20;99559.61;106119;1273;95861;-69
2022/06/18 06:48:51;;;;;;;8.30;3.10;;;;;;;20.41;61.03;99555.10;106135;1273;109304;-69
2022/06/18 06:51:27;;;;;;;8.10;2.90;;;;;;;20.67;60.95;99556.83;106109;1273;95199;-69
2022/06/18 06:53:57;;;;;;;10.70;3.70;;;;;;;20.97;60.58;99557.83;106125;1274;108435;-69
2022/06/18 06:59:14;;;;;;;6.90;2.80;;;;;;;21.86;60.32;99558.50;106146;1274;94299;-68
2022/06/18 07:01:42;;;;;;;9.30;2.90;;;;;;;23.06;59.31;99556.39;106169;1271;109270;-67
2022/06/18 07:04:16;;;;;;;7.20;2.80;;;;;;;24.85;58.07;99550.73;106149;1272;94299;-67
2022/06/18 07:06:44;;;;;;;7.60;2.70;;;;;;;26.58;57.63;99549.41;106197;1273;108291;-68
2022/06/18 07:09:14;;;;;;;7.80;2.60;;;;;;;28.28;57.16;99544.48;106142;1273;95156;-67
2022/06/18 07:11:43;;;;;;;6.20;2.60;;;;;;;29.88;56.86;99546.00;106143;1273;95163;-68
2022/06/18 07:14:13;;;;;;;5.90;2.10;;;;;;;31.37;56.19;99541.35;106068;1274;110431;-67
2022/06/18 07:16:53;;;;;;;4.50;2.30;;;;;;;32.70;55.69;99540.05;106118;1273;95631;-69
2022/06/18 07:19:25;;;;;;;4.80;2.60;;;;;;;33.95;54.77;99539.63;106046;1273;108422;-70
2022/06/18 07:21:57;;;;;;;7.00;2.70;;;;;;;34.97;54.96;99542.54;106059;1273;95279;-69
2022/06/18 07:24:25;;;;;;;6.80;2.40;;;;;;;36.07;54.22;99539.48;106076;1273;95157;-68
2022/06/18 07:26:56;;;;;;;4.70;1.90;;;;;;;36.85;52.84;99544.03;106079;1273;109398;-69
2022/06/18 07:29:24;;;;;;;5.90;2.00;;;;;;;37.26;50.60;99542.73;106146;1273;95669;-68
2022/06/18 07:31:54;;;;;;;6.10;1.80;;;;;;;37.52;51.38;99545.11;106004;1273;108712;-68
2022/06/18 07:34:24;;;;;;;5.20;2.50;;;;;;;38.08;51.01;99545.95;106043;1273;95292;-68
2022/06/18 07:36:54;;;;;;;6.80;2.00;;;;;;;38.40;50.32;99549.42;106036;1273;95233;-70
2022/06/18 07:39:23;;;;;;;3.90;2.10;;;;;;;38.91;49.64;99550.48;106048;1272;108810;-78
2022/06/18 07:41:58;;;;;;;6.50;3.10;;;;;;;39.21;48.37;99551.77;106080;1273;95315;-75
2022/06/18 07:44:30;;;;;;;5.90;2.20;;;;;;;39.18;46.70;99553.56;106022;1274;107682;-74
2022/06/18 07:47:02;;;;;;;5.80;1.80;;;;;;;39.16;47.23;99551.98;106043;1273;94198;-76
2022/06/18 07:49:34;;;;;;;2.30;1.50;;;;;;;39.35;46.55;99551.95;106090;1273;94721;-69
2022/06/18 07:52:01;;;;;;;;;;;;;;;39.69;45.52;99553.45;106054;1273;109957;-72
2022/06/18 07:54:29;;;;;;;4.60;2.10;;;;;;;39.61;44.90;99548.47;106128;1273;94984;-70
2022/06/18 07:56:57;;;;;;;3.30;1.80;;;;;;;39.57;43.63;99544.95;106105;1273;108165;-69
2022/06/18 07:59:25;;;;;;;7.70;2.10;;;;;;;39.36;43.89;99542.88;106139;1273;97170;-71
2022/06/18 08:01:53;;;;;;;4.10;2.20;;;;;;;39.25;43.40;99543.38;106171;1273;96634;-70
2022/06/18 08:04:21;;;;;;;4.80;2.20;;;;;;;39.28;43.17;99541.41;106105;1273;110113;-71
2022/06/18 08:06:49;;;;;;;3.90;1.80;;;;;;;39.57;42.32;99546.61;106150;1273;97735;-71
2022/06/18 08:09:17;;;;;;;4.00;2.00;;;;;;;39.59;42.14;99543.88;106071;1273;107591;-72
2022/06/18 08:11:46;;;;;;;5.10;1.80;;;;;;;39.51;40.93;99543.90;106165;1273;94737;-69
2022/06/18 08:14:17;;;;;;;5.80;2.40;;;;;;;39.46;40.23;99543.89;106104;1273;96512;-72
2022/06/18 08:16:44;;;;;;;6.30;2.40;;;;;;;39.33;40.49;99541.17;106129;1274;110213;-73
2022/06/18 08:19:13;;;;;;;7.30;2.70;;;;;;;39.37;39.52;99545.09;106111;1273;97016;-72
2022/06/18 08:21:52;;;;;;;2.60;2.10;;;;;;;39.32;38.88;99542.79;106119;1273;107718;-73
2022/06/18 08:24:24;;;;;;;3.40;2.00;;;;;;;38.80;38.15;99538.05;106114;1273;94758;-74
2022/06/18 08:26:52;;;;;;;6.00;2.00;;;;;;;38.46;37.73;99536.27;106079;1273;96537;-70
2022/06/18 08:29:24;;;;;;;3.30;1.80;;;;;;;38.63;37.53;99532.65;106063;1273;110077;-72
2022/06/18 08:31:52;;;;;;;5.20;2.20;;;;;;;38.80;36.93;99526.14;106080;1273;97051;-74
2022/06/18 08:34:24;;;;;;;4.30;2.10;;;;;;;38.99;36.59;99527.36;106086;1273;108980;-76
2022/06/18 08:37:03;;;;;;;3.80;2.00;;;;;;;39.15;36.23;99530.07;106159;1273;96516;-74
2022/06/18 08:39:36;;;;;;;3.50;1.90;;;;;;;39.09;36.00;99524.39;106047;1273;96632;-73
2022/06/18 08:42:24;;;;;;;5.80;2.10;;;;;;;38.83;34.63;99522.84;106101;1273;109908;-73
2022/06/18 08:45:17;;;;;;;5.20;2.00;;;;;;;38.36;34.90;99529.71;106106;1273;96598;-74
2022/06/18 08:48:04;;;;;;;2.90;1.90;;;;;;;38.26;34.63;99525.99;106122;1273;107549;-71
2022/06/18 08:50:52;;;;;;;6.70;2.00;;;;;;;38.23;34.42;99527.45;106075;1273;96183;-75
2022/06/18 08:53:29;;;;;;;6.90;2.00;;;;;;;38.33;34.19;99528.62;106137;1273;96547;-76
2022/06/18 08:56:05;;;;;;;6.60;2.10;;;;;;;38.40;34.12;99526.48;106176;1273;109998;-73
2022/06/18 08:58:39;;;;;;;5.40;1.50;;;;;;;38.38;33.70;99523.84;106094;1273;94424;-71
2022/06/18 09:01:29;;;;;;;6.40;2.30;;;;;;;38.28;33.51;99521.77;106095;1273;107600;-70
2022/06/18 09:04:03;;;;;;;5.80;2.10;;;;;;;38.36;32.88;99526.00;106086;1273;96536;-72
2022/06/18 09:07:06;;;;;;;8.20;2.20;;;;;;;38.08;31.82;99523.73;106206;1272;96501;-71
2022/06/18 09:09:37;;;;;;;3.20;2.10;;;;;;;37.39;32.21;99522.16;106217;1273;110093;-71
2022/06/18 09:12:09;;;;;;;4.70;2.10;;;;;;;37.05;31.84;99516.62;106296;1273;96533;-71
2022/06/18 09:14:46;;;;;;;4.20;2.20;;;;;;;36.89;31.74;99515.03;106236;1273;108692;-70
2022/06/18 09:17:45;;;;;;;5.80;2.40;;;;;;;36.78;31.64;99514.36;106171;1272;94754;-70
2022/06/18 09:20:43;;;;;;;7.50;2.10;;;;;;;36.81;31.59;99511.20;106299;1273;96606;-70
2022/06/18 09:23:20;;;;;;;9.30;2.20;;;;;;;36.85;31.37;99507.78;106225;1273;110125;-71
2022/06/18 09:25:54;;;;;;;4.10;1.70;;;;;;;36.65;30.07;99513.33;106218;1273;96961;-69
2022/06/18 09:28:43;;;;;;;7.90;2.20;;;;;;;36.22;30.45;99509.44;106253;1273;108163;-69
2022/06/18 09:31:25;;;;;;;5.10;1.80;;;;;;;35.88;30.65;99503.79;106142;1273;94712;-71
2022/06/18 09:34:10;;;;;;;3.30;1.50;;;;;;;35.96;30.76;99504.56;106171;1273;94707;-70
2022/06/18 09:36:49;;;;;;;3.50;2.00;;;;;;;36.05;30.64;99499.96;106031;1273;109187;-69
2022/06/18 09:39:37;;;;;;;9.00;2.30;;;;;;;36.16;30.50;99493.52;106049;1273;96438;-68
2022/06/18 09:42:21;;;;;;;4.00;1.90;;;;;;;36.20;30.18;99491.83;106007;1273;107804;-70
2022/06/18 09:45:02;;;;;;;6.00;2.30;;;;;;;35.82;29.78;99491.09;106062;1273;97869;-69
2022/06/18 09:47:47;;;;;;;3.60;1.90;;;;;;;35.44;30.12;99499.77;106093;1273;94321;-69
2022/06/18 09:50:31;;;;;;;4.00;1.90;;;;;;;34.89;29.67;99496.59;106045;1273;110492;-69
2022/06/18 09:53:14;;;;;;;4.30;1.90;;;;;;;34.55;29.46;99488.91;106064;1273;97086;-68
2022/06/18 09:55:49;;;;;;;5.20;1.90;;;;;;;34.45;29.64;99489.75;106063;1272;107543;-71
2022/06/18 09:58:25;;;;;;;4.20;1.70;;;;;;;34.42;29.59;99489.66;106261;1273;96483;-70
2022/06/18 10:00:57;;;;;;;4.70;2.20;;;;;;;34.21;29.40;99487.69;106080;1273;96620;-73
2022/06/18 10:09:37;;;;;;;4.30;1.90;;;;;;;32.28;28.93;99477.02;106121;1273;107703;-71
2022/06/18 10:12:32;;;;;;;5.00;1.90;;;;;;;31.75;29.14;99476.64;106045;1273;96662;-70
2022/06/18 10:15:06;;;;;;;5.50;2.00;;;;;;;31.28;29.04;99473.67;106118;1273;96543;-69
2022/06/18 10:18:07;;;;;;;4.80;2.30;;;;;;;30.84;28.79;99474.84;106103;1273;110081;-72
2022/06/18 10:21:04;;;;;;;10.10;2.70;;;;;;;30.31;28.89;99470.89;106085;1273;94382;-68
2022/06/18 10:23:51;;;;;;;6.00;2.20;;;;;;;29.93;28.99;99470.90;106240;1273;106921;-72
2022/06/18 10:26:37;;;;;;;7.20;2.10;;;;;;;29.67;29.00;99467.34;106185;1273;94993;-70
2022/06/18 10:29:40;;;;;;;5.20;2.10;;;;;;;29.48;29.04;99461.61;106149;1273;96533;-71
2022/06/18 10:32:24;;;;;;;4.10;2.00;;;;;;;29.20;29.22;99461.21;106105;1274;108561;-71
2022/06/18 10:35:19;;;;;;;6.20;2.10;;;;;;;28.76;28.69;99458.73;106054;1274;96581;-71
2022/06/18 10:38:16;;;;;;;5.00;2.40;;;;;;;28.29;28.80;99451.30;105985;1275;107748;-70
2022/06/18 10:40:59;;;;;;;7.00;2.50;;;;;;;28.05;29.20;99446.14;106022;1274;96593;-69
2022/06/18 10:43:28;;;;;;;4.40;2.60;;;;;;;27.76;29.14;99442.94;105990;1275;95764;-68
2022/06/18 10:46:09;;;;;;;6.50;2.30;;;;;;;27.55;29.18;99448.15;105966;1276;110834;-68
2022/06/18 10:48:43;;;;;;;6.30;2.50;;;;;;;27.46;29.27;99442.65;105976;1274;96865;-68
2022/06/18 10:51:19;;;;;;;4.60;2.30;;;;;;;27.43;29.42;99435.17;105952;1274;108344;-72
2022/06/18 10:54:02;;;;;;;6.20;2.10;;;;;;;27.33;29.60;99437.50;106132;1274;94792;-72
2022/06/18 10:56:44;;;;;;;6.40;2.70;;;;;;;27.30;29.83;99437.89;106044;1273;96701;-71
2022/06/18 10:59:12;;;;;;;6.30;2.80;;;;;;;27.27;30.08;99439.33;105968;1273;109602;-75
2022/06/18 11:01:46;;;;;;;5.80;2.10;;;;;;;27.23;29.80;99437.55;105992;1273;94322;-74
2022/06/18 11:04:30;;;;;;;7.80;2.00;;;;;;;27.17;30.07;99429.29;106016;1274;106409;-74
2022/06/18 11:06:59;;;;;;;;;;;;;;;27.10;29.99;99429.16;106024;1273;96533;-78
2022/06/18 11:09:33;;;;;;;7.40;2.20;;;;;;;26.96;30.23;99426.66;106028;1274;94627;-76
2022/06/18 11:12:19;;;;;;;4.60;2.40;;;;;;;26.80;30.29;99423.36;106042;1273;109718;-74
2022/06/18 11:14:48;;;;;;;6.10;2.70;;;;;;;26.69;30.42;99422.04;106087;1274;97108;-70
2022/06/18 11:17:21;;;;;;;7.60;2.60;;;;;;;26.68;30.39;99422.64;106091;1274;107465;-71
2022/06/18 11:19:49;;;;;;;7.20;2.60;;;;;;;26.67;30.47;99421.71;106098;1273;96612;-70
2022/06/18 11:22:29;;;;;;;6.90;2.20;;;;;;;26.66;30.53;99418.40;106031;1273;94254;-71
2022/06/18 11:25:02;;;;;;;5.30;2.10;;;;;;;26.69;30.57;99415.67;106078;1274;110054;-71
2022/06/18 11:27:32;;;;;;;;;;;;;;;26.69;30.75;99414.71;106076;1276;96374;-71
2022/06/18 11:30:18;;;;;;;6.80;2.20;;;;;;;26.64;30.72;99412.60;106083;1274;108685;-71
2022/06/18 11:32:49;;;;;;;4.10;2.10;;;;;;;26.57;30.85;99412.45;106311;1273;94789;-71
2022/06/18 11:35:42;;;;;;;9.00;3.10;;;;;;;26.49;31.04;99410.86;106122;1273;96567;-70
2022/06/18 11:38:32;;;;;;;4.00;2.30;;;;;;;26.46;31.20;99411.58;106052;1273;109996;-70
2022/06/18 11:41:11;;;;;;;5.50;2.30;;;;;;;26.42;30.98;99404.98;106069;1273;97206;-70
2022/06/18 11:44:04;;;;;;;10.00;2.30;;;;;;;26.38;31.33;99401.83;105982;1273;109186;-70
2022/06/18 11:46:45;;;;;;;4.20;2.10;;;;;;;26.38;31.21;99400.70;106040;1273;96543;-71
2022/06/18 11:49:27;;;;;;;5.30;2.50;;;;;;;26.35;31.47;99396.41;106074;1273;96542;-72
2022/06/18 11:52:56;;;;;;;5.20;2.40;;;;;;;26.34;31.43;99391.23;106098;1273;109988;-71
2022/06/18 11:55:40;;;;;;;7.50;2.50;;;;;;;26.31;31.48;99388.17;106215;1273;96979;-71
2022/06/18 11:58:23;;;;;;;8.80;2.80;;;;;;;26.32;31.51;99389.42;106047;1273;107802;-71
2022/06/18 12:01:15;;;;;;;4.60;2.10;;;;;;;26.35;31.67;99387.22;106181;1273;94838;-70
2022/06/18 12:03:54;;;;;;;5.00;2.20;;;;;;;26.40;31.76;99381.70;106182;1273;96455;-70
2022/06/18 12:06:36;;;;;;;5.90;2.50;;;;;;;26.44;31.81;99380.69;106078;1273;110168;-69
2022/06/18 12:09:27;;;;;;;7.60;2.60;;;;;;;26.45;31.85;99379.98;106104;1273;94351;-70
2022/06/18 12:12:17;;;;;;;4.70;2.70;;;;;;;26.39;31.80;99379.08;106088;1273;107058;-71
2022/06/18 12:15:02;;;;;;;9.10;2.50;;;;;;;26.36;31.90;99376.90;106108;1273;94717;-70
2022/06/18 12:17:42;;;;;;;5.70;2.60;;;;;;;26.27;32.09;99371.81;106084;1272;94245;-70